createdAt,value
2022-08-09T00:00:11.330Z,54.67
2022-08-09T00:02:49.276Z,54.93
2022-08-09T00:06:19.251Z,55.09
2022-08-09T00:08:33.133Z,55.45
2022-08-09T00:11:05.818Z,55.59
2022-08-09T00:13:51.712Z,55.54
2022-08-09T00:16:25.951Z,55.94
2022-08-09T00:18:56.405Z,56.15
2022-08-09T00:21:24.875Z,56.20
2022-08-09T00:24:00.097Z,56.34
2022-08-09T00:26:29.935Z,56.37
2022-08-09T00:29:03.012Z,56.55
2022-08-09T00:31:58.928Z,56.30
2022-08-09T00:34:20.384Z,56.57
2022-08-09T00:37:15.291Z,56.89
2022-08-09T00:40:09.724Z,56.89
2022-08-09T00:44:10.158Z,57.29
2022-08-09T00:45:23.240Z,57.48
2022-08-09T00:48:16.894Z,57.67
2022-08-09T00:50:47.411Z,57.85
2022-08-09T00:53:23.986Z,57.52
2022-08-09T00:56:04.226Z,57.69
2022-08-09T00:58:36.130Z,58.18
2022-08-09T01:01:15.924Z,58.48
2022-08-09T01:03:56.813Z,58.75
2022-08-09T01:06:54.479Z,58.79
2022-08-09T01:09:36.770Z,58.95
2022-08-09T01:12:15.584Z,58.79
2022-08-09T01:15:37.162Z,59.37
2022-08-09T01:18:35.134Z,59.20
2022-08-09T01:21:40.946Z,59.49
2022-08-09T01:24:50.525Z,59.32
2022-08-09T01:27:30.800Z,59.46
2022-08-09T01:30:02.390Z,59.75
2022-08-09T01:32:36.450Z,59.89
2022-08-09T01:35:37.621Z,60.02
2022-08-09T01:38:15.022Z,59.72
2022-08-09T01:41:05.752Z,59.95
2022-08-09T01:43:42.076Z,60.06
2022-08-09T01:46:36.303Z,60.07
2022-08-09T01:49:12.715Z,60.11
2022-08-09T01:51:53.933Z,59.98
2022-08-09T01:54:48.522Z,59.83
2022-08-09T01:57:52.847Z,60.00
2022-08-09T02:00:50.513Z,59.84
2022-08-09T02:03:19.715Z,59.89
2022-08-09T02:05:53.541Z,59.95
2022-08-09T02:08:57.025Z,59.74
2022-08-09T02:11:25.668Z,60.16
2022-08-09T02:14:15.030Z,60.18
2022-08-09T02:17:14.698Z,59.96
2022-08-09T02:19:45.042Z,60.03
2022-08-09T02:22:46.469Z,60.00
2022-08-09T02:25:27.519Z,60.30
2022-08-09T02:28:17.761Z,60.42
2022-08-09T02:30:51.747Z,60.71
2022-08-09T02:33:58.250Z,60.72
2022-08-09T02:36:18.513Z,60.94
2022-08-09T02:38:55.753Z,61.54
2022-08-09T02:41:38.643Z,61.34
2022-08-09T02:44:29.260Z,61.50
2022-08-09T02:47:04.271Z,61.28
2022-08-09T02:49:38.781Z,61.51
2022-08-09T02:52:36.801Z,61.79
2022-08-09T02:55:15.188Z,61.44
2022-08-09T02:58:00.376Z,61.83
2022-08-09T03:00:57.724Z,61.70
2022-08-09T03:03:37.190Z,61.79
2022-08-09T03:06:17.974Z,61.87
2022-08-09T03:08:47.492Z,61.96
2022-08-09T03:12:06.515Z,62.09
2022-08-09T03:14:12.941Z,62.01
2022-08-09T03:16:47.715Z,61.88
2022-08-09T03:19:52.646Z,61.88
2022-08-09T03:22:12.260Z,62.10
2022-08-09T03:25:05.880Z,62.17
2022-08-09T03:27:52.174Z,62.35
2022-08-09T03:30:46.121Z,62.35
2022-08-09T03:33:19.064Z,62.87
2022-08-09T03:36:37.041Z,62.62
2022-08-09T03:39:05.593Z,62.90
2022-08-09T03:41:48.251Z,62.81
2022-08-09T03:44:16.695Z,62.71
2022-08-09T03:46:47.036Z,62.54
2022-08-09T03:49:19.253Z,62.28
2022-08-09T03:51:58.193Z,61.95
2022-08-09T03:54:34.890Z,61.89
2022-08-09T03:57:18.649Z,61.77
2022-08-09T04:00:00.639Z,61.89
2022-08-09T04:02:40.312Z,61.76
2022-08-09T04:05:14.051Z,61.83
2022-08-09T04:07:58.553Z,61.40
2022-08-09T04:10:29.079Z,61.52
2022-08-09T04:13:03.827Z,61.03
2022-08-09T04:16:19.335Z,60.90
2022-08-09T04:19:15.750Z,60.53
2022-08-09T04:21:45.519Z,60.57
2022-08-09T04:24:21.313Z,60.36
2022-08-09T04:26:54.945Z,60.54
2022-08-09T04:29:24.463Z,60.74
2022-08-09T04:32:15.024Z,60.41
2022-08-09T04:34:47.747Z,60.64
2022-08-09T04:38:33.420Z,60.49
2022-08-09T04:41:02.548Z,60.97
2022-08-09T04:43:35.738Z,61.11
2022-08-09T04:46:03.927Z,61.16
2022-08-09T04:48:33.454Z,60.83
2022-08-09T04:51:27.356Z,60.80
2022-08-09T04:54:01.256Z,60.78
2022-08-09T04:56:30.576Z,60.57
2022-08-09T04:59:25.598Z,60.76
2022-08-09T05:02:27.444Z,61.28
2022-08-09T05:04:56.259Z,61.12
2022-08-09T05:07:29.216Z,60.96
2022-08-09T05:10:03.196Z,60.94
2022-08-09T05:12:55.825Z,60.60
2022-08-09T05:15:39.209Z,60.52
2022-08-09T05:18:37.820Z,60.36
2022-08-09T05:21:02.881Z,59.95
2022-08-09T05:24:03.986Z,59.52
2022-08-09T05:26:36.506Z,59.42
2022-08-09T05:29:06.789Z,59.11
2022-08-09T05:31:56.139Z,59.05
2022-08-09T05:34:30.064Z,58.72
2022-08-09T05:37:07.447Z,58.64
2022-08-09T05:39:42.863Z,58.16
2022-08-09T05:42:21.237Z,58.11
2022-08-09T05:44:54.162Z,58.14
2022-08-09T05:47:27.191Z,58.10
2022-08-09T05:50:30.021Z,57.81
2022-08-09T05:52:53.519Z,57.73
2022-08-09T05:55:47.163Z,57.77
2022-08-09T05:58:18.660Z,58.06
2022-08-09T06:00:46.446Z,57.88
2022-08-09T06:03:20.038Z,57.84
2022-08-09T06:05:58.043Z,57.24
2022-08-09T06:08:34.602Z,57.31
2022-08-09T06:11:16.457Z,56.97
2022-08-09T06:13:47.514Z,56.58
2022-08-09T06:16:25.479Z,56.75
2022-08-09T06:18:53.480Z,56.56
2022-08-09T06:21:21.878Z,56.22
2022-08-09T06:23:58.266Z,56.23
2022-08-09T06:26:30.091Z,55.87
2022-08-09T06:29:05.227Z,55.59
2022-08-09T06:32:36.152Z,55.50
2022-08-09T06:34:30.783Z,55.55
2022-08-09T06:36:59.735Z,55.74
2022-08-09T06:39:48.316Z,55.66
2022-08-09T06:42:24.431Z,55.43
2022-08-09T06:44:57.293Z,55.68
2022-08-09T06:47:30.330Z,55.02
2022-08-09T06:50:13.361Z,55.14
2022-08-09T06:53:05.010Z,55.04
2022-08-09T06:55:33.479Z,54.76
2022-08-09T06:58:04.436Z,54.54
2022-08-09T07:00:51.876Z,54.30
2022-08-09T07:03:27.907Z,54.18
2022-08-09T07:06:03.534Z,53.94
2022-08-09T07:08:37.415Z,53.97
2022-08-09T07:11:08.507Z,53.84
2022-08-09T07:14:03.576Z,53.40
2022-08-09T07:16:43.338Z,52.84
2022-08-09T07:19:18.659Z,52.48
2022-08-09T07:21:57.071Z,52.22
2022-08-09T07:24:32.267Z,52.09
2022-08-09T07:27:26.695Z,52.21
2022-08-09T07:30:00.778Z,51.79
2022-08-09T07:32:33.624Z,51.65
2022-08-09T07:35:08.191Z,51.59
2022-08-09T07:37:44.047Z,51.54
2022-08-09T07:40:16.950Z,51.30
2022-08-09T07:42:50.240Z,51.23
2022-08-09T07:45:23.613Z,50.85
2022-08-09T07:48:25.321Z,50.62
2022-08-09T07:51:09.969Z,50.47
2022-08-09T07:54:05.383Z,50.39
2022-08-09T07:56:44.747Z,50.77
2022-08-09T07:59:33.631Z,50.90
2022-08-09T08:02:03.388Z,50.67
2022-08-09T08:04:33.269Z,50.55
2022-08-09T08:07:15.140Z,50.15
2022-08-09T08:09:55.110Z,50.31
2022-08-09T08:12:43.758Z,49.84
2022-08-09T08:15:16.480Z,48.86
2022-08-09T08:17:54.846Z,48.47
2022-08-09T08:20:32.792Z,47.74
2022-08-09T08:23:16.087Z,47.07
2022-08-09T08:25:49.699Z,46.75
2022-08-09T08:28:32.001Z,46.50
2022-08-09T08:31:14.221Z,46.23
2022-08-09T08:33:53.161Z,46.05
2022-08-09T08:36:28.820Z,46.32
2022-08-09T08:39:22.898Z,45.80
2022-08-09T08:41:52.482Z,45.89
2022-08-09T08:44:22.955Z,44.72
2022-08-09T08:47:02.960Z,44.66
2022-08-09T08:49:46.386Z,44.19
2022-08-09T08:52:48.434Z,43.20
2022-08-09T08:55:05.584Z,43.74
2022-08-09T08:57:35.429Z,43.05
2022-08-09T09:00:12.791Z,43.23
2022-08-09T09:02:53.632Z,43.40
2022-08-09T09:05:32.980Z,42.90
2022-08-09T09:08:30.710Z,42.77
2022-08-09T09:11:05.696Z,42.22
2022-08-09T09:13:56.198Z,41.71
2022-08-09T09:16:33.710Z,40.19
2022-08-09T09:22:14.060Z,39.81
2022-08-09T09:24:47.041Z,40.02
2022-08-09T09:28:03.197Z,39.89
2022-08-09T09:30:26.112Z,39.39
2022-08-09T09:33:15.448Z,39.83
2022-08-09T09:36:11.725Z,39.82
2022-08-09T09:38:57.425Z,39.67
2022-08-09T09:41:32.921Z,39.70
2022-08-09T09:44:11.832Z,39.48
2022-08-09T09:46:45.911Z,39.12
2022-08-09T09:49:23.544Z,39.61
2022-08-09T09:52:16.703Z,39.48
2022-08-09T09:55:27.524Z,39.34
2022-08-09T09:58:03.254Z,39.80
2022-08-09T10:00:33.808Z,39.86
2022-08-09T10:03:11.799Z,38.88
2022-08-09T10:06:04.613Z,38.13
2022-08-09T10:08:43.315Z,37.70
2022-08-09T10:11:59.664Z,37.45
2022-08-09T10:14:33.093Z,37.25
2022-08-09T10:17:40.622Z,37.35
2022-08-09T10:20:01.825Z,37.30
2022-08-09T10:22:37.193Z,37.49
2022-08-09T10:25:11.742Z,37.86
2022-08-09T10:27:57.132Z,37.47
2022-08-09T10:34:04.937Z,36.34
2022-08-09T10:36:12.272Z,36.67
2022-08-09T10:38:57.110Z,36.65
2022-08-09T10:42:06.402Z,36.55
2022-08-09T10:45:10.705Z,36.74
2022-08-09T10:48:19.497Z,36.78
2022-08-09T10:51:01.820Z,37.04
2022-08-09T10:53:39.346Z,37.00
2022-08-09T10:56:22.948Z,37.26
2022-08-09T10:58:54.001Z,37.43
2022-08-09T11:03:11.986Z,36.40
2022-08-09T11:04:30.108Z,35.71
2022-08-09T11:07:00.717Z,34.85
2022-08-09T11:09:38.191Z,34.47
2022-08-09T11:12:17.131Z,34.39
2022-08-09T11:14:55.806Z,34.68
2022-08-09T11:17:24.583Z,35.02
2022-08-09T11:20:10.797Z,34.87
2022-08-09T11:22:44.809Z,35.26
2022-08-09T11:25:47.988Z,35.75
2022-08-09T11:28:34.051Z,35.47
2022-08-09T11:31:36.633Z,35.52
2022-08-09T11:34:14.491Z,34.62
2022-08-09T11:36:44.408Z,34.36
2022-08-09T11:39:13.040Z,34.16
2022-08-09T11:41:45.983Z,34.24
2022-08-09T11:44:16.723Z,34.68
2022-08-09T11:46:52.883Z,34.83
2022-08-09T11:50:55.557Z,34.95
2022-08-09T11:53:20.971Z,35.10
2022-08-09T11:55:52.666Z,35.50
2022-08-09T11:58:33.065Z,35.13
2022-08-09T12:01:08.310Z,35.10
2022-08-09T12:03:57.124Z,35.30
2022-08-09T12:09:35.741Z,35.65
2022-08-09T12:12:13.021Z,35.95
2022-08-09T12:15:04.054Z,36.05
2022-08-09T12:17:44.295Z,35.73
2022-08-09T12:20:26.091Z,35.47
2022-08-09T12:22:57.381Z,35.76
2022-08-09T12:25:35.853Z,35.67
2022-08-09T12:29:14.627Z,35.30
2022-08-09T12:31:10.802Z,35.72
2022-08-09T12:33:58.492Z,35.84
2022-08-09T12:36:33.454Z,35.68
2022-08-09T12:39:02.394Z,35.27
2022-08-09T12:41:39.314Z,34.82
2022-08-09T12:44:10.287Z,34.52
2022-08-09T12:46:48.803Z,34.60
2022-08-09T12:49:19.158Z,33.63
2022-08-09T12:52:02.371Z,33.46
2022-08-09T12:56:12.239Z,32.82
2022-08-09T12:57:42.920Z,33.05
2022-08-09T13:00:25.800Z,32.76
2022-08-09T13:02:56.577Z,33.21
2022-08-09T13:05:25.528Z,33.52
2022-08-09T13:08:14.436Z,33.96
2022-08-09T13:10:57.106Z,34.45
2022-08-09T13:14:40.663Z,34.82
2022-08-09T13:16:54.959Z,35.75
2022-08-09T13:20:09.646Z,36.24
2022-08-09T13:22:35.594Z,36.77
2022-08-09T13:25:54.416Z,36.81
2022-08-09T13:28:34.334Z,36.69
2022-08-09T13:32:09.860Z,36.86
2022-08-09T13:33:59.378Z,37.09
2022-08-09T13:36:40.188Z,36.92
2022-08-09T13:41:17.110Z,37.10
2022-08-09T13:42:13.977Z,37.34
2022-08-09T13:44:45.921Z,37.09
2022-08-09T13:47:31.182Z,36.81
2022-08-09T13:50:30.006Z,37.31
2022-08-09T13:52:59.303Z,37.36
2022-08-09T13:55:29.039Z,37.13
2022-08-09T13:57:59.714Z,37.05
2022-08-09T14:00:29.395Z,37.13
2022-08-09T14:03:03.156Z,36.48
2022-08-09T14:05:56.771Z,36.26
2022-08-09T14:08:33.392Z,36.07
2022-08-09T14:11:01.513Z,36.07
2022-08-09T14:14:24.720Z,35.87
2022-08-09T14:16:28.775Z,35.46
2022-08-09T14:18:59.396Z,34.81
2022-08-09T14:21:29.314Z,34.55
2022-08-09T14:24:01.413Z,34.04
2022-08-09T14:26:36.914Z,33.81
2022-08-09T14:29:25.784Z,34.68
2022-08-09T14:31:57.568Z,35.42
2022-08-09T14:34:32.241Z,35.74
2022-08-09T14:37:07.444Z,36.34
2022-08-09T14:39:46.500Z,36.09
2022-08-09T14:42:30.847Z,36.37
2022-08-09T14:46:39.172Z,36.68
2022-08-09T14:47:58.844Z,36.86
2022-08-09T14:50:44.894Z,37.37
2022-08-09T14:53:14.690Z,37.64
2022-08-09T14:56:57.583Z,37.70
2022-08-09T14:59:30.686Z,37.57
2022-08-09T15:02:09.040Z,38.20
2022-08-09T15:04:40.758Z,38.24
2022-08-09T15:07:09.979Z,38.56
2022-08-09T15:10:07.892Z,39.01
2022-08-09T15:12:26.397Z,39.34
2022-08-09T15:14:55.476Z,39.10
2022-08-09T15:17:31.111Z,39.62
2022-08-09T15:20:02.704Z,39.31
2022-08-09T15:22:33.106Z,39.23
2022-08-09T15:25:03.849Z,38.88
2022-08-09T15:27:47.803Z,38.73
2022-08-09T15:30:58.561Z,38.83
2022-08-09T15:33:15.187Z,39.28
2022-08-09T15:36:01.909Z,38.94
2022-08-09T15:38:34.439Z,39.06
2022-08-09T15:41:09.412Z,39.20
2022-08-09T15:43:41.761Z,39.52
2022-08-09T15:46:31.743Z,39.74
2022-08-09T15:49:22.015Z,40.04
2022-08-09T15:52:04.842Z,40.07
2022-08-09T15:54:44.664Z,40.33
2022-08-09T15:57:35.966Z,40.68
2022-08-09T16:03:29.256Z,40.45
2022-08-09T16:06:29.476Z,40.50
2022-08-09T16:09:01.276Z,40.54
2022-08-09T16:11:33.719Z,40.48
2022-08-09T16:14:06.813Z,40.51
2022-08-09T16:16:42.055Z,40.34
2022-08-09T16:19:16.577Z,40.16
2022-08-09T16:21:52.060Z,40.53
2022-08-09T16:24:33.120Z,40.59
2022-08-09T16:27:05.113Z,40.57
2022-08-09T16:29:36.832Z,40.56
2022-08-09T16:32:33.338Z,40.57
2022-08-09T16:34:57.814Z,40.83
2022-08-09T16:37:55.766Z,40.86
2022-08-09T16:40:20.619Z,40.89
2022-08-09T16:43:06.520Z,40.90
2022-08-09T16:45:43.806Z,40.91
2022-08-09T16:48:43.399Z,41.12
2022-08-09T16:51:08.213Z,41.29
2022-08-09T16:54:02.559Z,41.06
2022-08-09T16:56:31.093Z,41.11
2022-08-09T16:59:01.285Z,41.26
2022-08-09T17:01:35.691Z,41.56
2022-08-09T17:04:05.244Z,41.66
2022-08-09T17:08:40.292Z,41.78
2022-08-09T17:09:45.135Z,42.19
2022-08-09T17:12:10.374Z,42.34
2022-08-09T17:14:38.329Z,42.60
2022-08-09T17:17:26.439Z,42.64
2022-08-09T17:20:33.280Z,42.91
2022-08-09T17:22:50.282Z,43.07
2022-08-09T17:25:21.999Z,43.16
2022-08-09T17:27:54.535Z,43.36
2022-08-09T17:30:25.512Z,43.52
2022-08-09T17:33:04.749Z,43.70
2022-08-09T17:35:36.094Z,43.91
2022-08-09T17:38:32.553Z,44.09
2022-08-09T17:40:58.785Z,44.44
2022-08-09T17:43:33.929Z,44.64
2022-08-09T17:46:08.970Z,45.14
2022-08-09T17:48:51.605Z,45.53
2022-08-09T17:51:20.719Z,45.71
2022-08-09T17:53:53.093Z,46.03
2022-08-09T17:56:32.409Z,46.38
2022-08-09T17:59:09.121Z,46.65
2022-08-09T18:02:03.899Z,46.91
2022-08-09T18:04:28.556Z,47.05
2022-08-09T18:06:56.955Z,47.20
2022-08-09T18:09:35.787Z,47.49
2022-08-09T18:12:19.445Z,47.69
2022-08-09T18:14:54.969Z,47.84
2022-08-09T18:17:27.633Z,48.02
2022-08-09T18:20:56.441Z,48.49
2022-08-09T18:23:05.262Z,48.78
2022-08-09T18:25:52.972Z,48.86
2022-08-09T18:30:39.327Z,48.94
2022-08-09T18:31:15.068Z,49.39
2022-08-09T18:33:53.716Z,49.45
2022-08-09T18:36:25.863Z,49.75
2022-08-09T18:39:02.853Z,49.87
2022-08-09T18:41:34.902Z,50.00
2022-08-09T18:44:13.242Z,50.46
2022-08-09T18:46:50.726Z,50.70
2022-08-09T18:49:28.498Z,50.78
2022-08-09T18:52:00.253Z,50.68
2022-08-09T18:54:30.153Z,50.90
2022-08-09T18:57:05.416Z,51.01
2022-08-09T18:59:51.140Z,51.11
2022-08-09T19:02:42.717Z,51.38
2022-08-09T19:05:28.859Z,51.34
2022-08-09T19:08:10.569Z,51.53
2022-08-09T19:10:41.961Z,51.54
2022-08-09T19:13:22.262Z,51.73
2022-08-09T19:16:01.436Z,51.80
2022-08-09T19:18:34.043Z,51.99
2022-08-09T19:21:09.771Z,52.19
2022-08-09T19:24:37.924Z,52.33
2022-08-09T19:26:32.132Z,52.67
2022-08-09T19:29:03.309Z,52.44
2022-08-09T19:31:44.821Z,52.51
2022-08-09T19:34:22.298Z,52.85
2022-08-09T19:36:55.789Z,52.77
2022-08-09T19:39:29.270Z,52.80
2022-08-09T19:42:15.040Z,52.61
2022-08-09T19:44:49.256Z,52.61
2022-08-09T19:47:22.994Z,52.88
2022-08-09T19:50:06.677Z,52.27
2022-08-09T19:52:37.203Z,52.34
2022-08-09T19:55:19.587Z,52.18
2022-08-09T19:57:53.306Z,52.14
2022-08-09T20:00:21.175Z,51.92
2022-08-09T20:04:10.523Z,52.13
2022-08-09T20:05:46.306Z,52.11
2022-08-09T20:08:33.553Z,52.03
2022-08-09T20:11:04.878Z,52.02
2022-08-09T20:13:37.011Z,52.05
2022-08-09T20:16:37.405Z,52.25
2022-08-09T20:19:42.208Z,52.31
2022-08-09T20:21:56.932Z,52.44
2022-08-09T20:24:31.822Z,52.47
2022-08-09T20:27:05.661Z,52.81
2022-08-09T20:29:39.908Z,52.76
2022-08-09T20:32:33.238Z,53.21
2022-08-09T20:35:01.411Z,52.93
2022-08-09T20:37:37.845Z,53.04
2022-08-09T20:40:26.913Z,53.15
2022-08-09T20:43:18.911Z,53.21
2022-08-09T20:45:59.757Z,53.63
2022-08-09T20:48:31.470Z,53.59
2022-08-09T20:51:01.306Z,53.95
2022-08-09T20:53:36.281Z,53.98
2022-08-09T20:56:20.544Z,54.02
2022-08-09T20:58:57.886Z,54.12
2022-08-09T21:01:35.174Z,54.57
2022-08-09T21:05:56.200Z,54.47
2022-08-09T21:07:10.914Z,54.33
2022-08-09T21:09:46.055Z,54.58
2022-08-09T21:15:15.378Z,54.90
2022-08-09T21:18:11.318Z,55.27
2022-08-09T21:20:35.392Z,55.30
2022-08-09T21:23:04.337Z,55.41
2022-08-09T21:25:56.049Z,55.85
2022-08-09T21:28:35.582Z,56.00
2022-08-09T21:31:13.553Z,56.04
2022-08-09T21:33:52.484Z,56.21
2022-08-09T21:36:23.357Z,55.96
2022-08-09T21:38:57.958Z,56.50
2022-08-09T21:42:00.304Z,56.45
2022-08-09T21:44:33.196Z,56.58
2022-08-09T21:47:08.589Z,56.42
2022-08-09T21:49:39.722Z,56.32
2022-08-09T21:52:17.276Z,56.62
2022-08-09T21:55:04.404Z,56.75
2022-08-09T21:57:38.302Z,57.22
2022-08-09T22:00:31.735Z,57.16
2022-08-09T22:03:12.563Z,57.26
2022-08-09T22:05:54.950Z,57.57
2022-08-09T22:08:25.824Z,57.53
2022-08-09T22:11:50.538Z,57.54
2022-08-09T22:13:43.930Z,57.26
2022-08-09T22:16:12.171Z,57.49
2022-08-09T22:18:44.027Z,57.53
2022-08-09T22:21:27.542Z,58.00
2022-08-09T22:24:16.865Z,57.95
2022-08-09T22:26:47.866Z,58.18
2022-08-09T22:29:32.294Z,58.36
2022-08-09T22:32:30.093Z,58.45
2022-08-09T22:35:05.947Z,58.66
2022-08-09T22:37:40.356Z,58.56
2022-08-09T22:40:09.649Z,58.90
2022-08-09T22:42:38.803Z,58.80
2022-08-09T22:48:11.603Z,58.72
2022-08-09T22:48:11.987Z,59.02
2022-08-09T22:50:53.070Z,58.69
2022-08-09T22:53:21.158Z,59.12
2022-08-09T22:56:30.268Z,59.18
2022-08-09T22:58:41.704Z,59.07
2022-08-09T23:01:10.480Z,59.24
2022-08-09T23:04:03.273Z,59.70
2022-08-09T23:06:48.018Z,59.57
2022-08-09T23:09:18.378Z,59.97
2022-08-09T23:11:49.577Z,60.24
2022-08-09T23:14:17.738Z,60.03
2022-08-09T23:17:05.471Z,60.08
2022-08-09T23:20:06.064Z,60.44
2022-08-09T23:22:21.054Z,60.70
2022-08-09T23:24:48.923Z,60.40
2022-08-09T23:27:17.459Z,60.67
2022-08-09T23:29:45.247Z,61.09
2022-08-09T23:32:13.249Z,60.97
2022-08-09T23:34:41.063Z,60.98
2022-08-09T23:37:09.421Z,61.18
2022-08-09T23:39:37.211Z,61.11
2022-08-09T23:42:05.352Z,61.20
2022-08-09T23:44:33.068Z,61.12
2022-08-09T23:47:00.951Z,61.37
2022-08-09T23:49:28.722Z,61.19
2022-08-09T23:51:56.702Z,61.35
2022-08-09T23:54:26.533Z,61.62
2022-08-09T23:56:58.671Z,61.88
2022-08-09T23:59:46.387Z,61.95
